createdAt,value
2023-04-10T00:00:38.026Z,7.20
2023-04-10T00:03:05.933Z,7.20
2023-04-10T00:05:34.554Z,7.20
2023-04-10T00:08:03.280Z,7.20
2023-04-10T00:10:31.774Z,7.20
2023-04-10T00:13:01.134Z,7.10
2023-04-10T00:15:28.907Z,7.10
2023-04-10T00:17:56.306Z,7.10
2023-04-10T00:20:26.227Z,7.10
2023-04-10T00:22:55.118Z,7.10
2023-04-10T00:25:23.149Z,7.10
2023-04-10T00:27:50.583Z,7.10
2023-04-10T00:30:17.456Z,7.10
2023-04-10T00:32:44.768Z,7.10
2023-04-10T00:35:11.758Z,7.00
2023-04-10T00:37:39.213Z,7.00
2023-04-10T00:40:09.199Z,7.00
2023-04-10T00:42:36.168Z,7.00
2023-04-10T00:45:03.319Z,7.00
2023-04-10T00:47:31.034Z,6.90
2023-04-10T00:49:58.133Z,6.90
2023-04-10T00:52:26.917Z,6.90
2023-04-10T00:54:53.824Z,6.90
2023-04-10T00:57:22.753Z,6.90
2023-04-10T00:59:52.062Z,6.80
2023-04-10T01:02:20.287Z,6.80
2023-04-10T01:04:47.927Z,6.70
2023-04-10T01:07:21.819Z,6.70
2023-04-10T01:09:55.847Z,6.70
2023-04-10T01:12:45.485Z,6.60
2023-04-10T01:15:15.724Z,6.70
2023-04-10T01:17:50.812Z,6.70
2023-04-10T01:20:22.805Z,6.80
2023-04-10T01:23:09.573Z,6.80
2023-04-10T01:25:43.860Z,6.90
2023-04-10T01:28:35.372Z,6.90
2023-04-10T01:31:07.050Z,6.90
2023-04-10T01:33:39.501Z,6.90
2023-04-10T01:36:09.155Z,6.90
2023-04-10T01:38:38.497Z,6.80
2023-04-10T01:41:07.536Z,6.80
2023-04-10T01:43:35.120Z,6.70
2023-04-10T01:46:05.136Z,6.80
2023-04-10T01:48:32.124Z,6.80
2023-04-10T01:51:01.947Z,6.90
2023-04-10T01:53:29.411Z,6.90
2023-04-10T01:55:57.151Z,7.00
2023-04-10T01:58:24.535Z,7.00
2023-04-10T02:00:51.761Z,7.00
2023-04-10T02:03:20.516Z,7.00
2023-04-10T02:05:57.321Z,7.00
2023-04-10T02:08:29.705Z,7.00
2023-04-10T02:11:03.495Z,7.00
2023-04-10T02:13:32.629Z,7.00
2023-04-10T02:16:05.648Z,7.00
2023-04-10T02:18:38.917Z,7.00
2023-04-10T02:21:08.369Z,7.00
2023-04-10T02:23:36.644Z,6.90
2023-04-10T02:26:08.398Z,6.90
2023-04-10T02:28:37.499Z,6.90
2023-04-10T02:31:04.972Z,6.90
2023-04-10T02:33:31.887Z,6.90
2023-04-10T02:36:01.080Z,6.90
2023-04-10T02:38:27.965Z,6.90
2023-04-10T02:40:54.965Z,6.90
2023-04-10T02:43:21.985Z,6.90
2023-04-10T02:45:48.879Z,7.00
2023-04-10T02:48:16.101Z,6.90
2023-04-10T02:50:46.864Z,6.90
2023-04-10T02:53:16.775Z,6.90
2023-04-10T02:55:43.875Z,6.90
2023-04-10T02:58:14.468Z,6.90
2023-04-10T03:00:47.488Z,6.90
2023-04-10T03:03:14.689Z,7.00
2023-04-10T03:05:41.726Z,6.90
2023-04-10T03:08:08.987Z,6.90
2023-04-10T03:10:37.272Z,6.90
2023-04-10T03:13:04.712Z,6.90
2023-04-10T03:15:32.255Z,6.90
2023-04-10T03:17:59.539Z,6.90
2023-04-10T03:20:26.496Z,6.90
2023-04-10T03:22:53.870Z,6.90
2023-04-10T03:25:20.934Z,6.90
2023-04-10T03:27:49.499Z,6.90
2023-04-10T03:30:17.105Z,6.90
2023-04-10T03:32:44.028Z,6.90
2023-04-10T03:35:10.966Z,6.90
2023-04-10T03:37:38.382Z,6.90
2023-04-10T03:40:08.343Z,6.90
2023-04-10T03:42:36.358Z,6.90
2023-04-10T03:45:06.520Z,6.90
2023-04-10T03:47:34.388Z,6.90
2023-04-10T03:50:01.446Z,7.00
2023-04-10T03:52:28.630Z,7.00
2023-04-10T03:54:55.605Z,7.00
2023-04-10T03:57:22.598Z,7.00
2023-04-10T03:59:49.502Z,6.90
2023-04-10T04:02:18.214Z,6.90
2023-04-10T04:04:45.621Z,6.90
2023-04-10T04:07:14.196Z,6.90
2023-04-10T04:09:41.188Z,6.90
2023-04-10T04:12:08.524Z,6.80
2023-04-10T04:14:35.497Z,6.90
2023-04-10T04:17:02.883Z,6.90
2023-04-10T04:19:32.421Z,6.90
2023-04-10T04:22:00.731Z,6.90
2023-04-10T04:24:27.739Z,7.00
2023-04-10T04:26:55.051Z,7.00
2023-04-10T04:29:21.990Z,7.00
2023-04-10T04:31:49.254Z,7.00
2023-04-10T04:34:16.505Z,7.00
2023-04-10T04:36:44.885Z,7.00
2023-04-10T04:39:11.928Z,7.00
2023-04-10T04:41:39.226Z,6.90
2023-04-10T04:44:06.714Z,7.00
2023-04-10T04:46:34.147Z,7.00
2023-04-10T04:49:01.178Z,7.00
2023-04-10T04:51:28.568Z,7.00
2023-04-10T04:53:56.818Z,7.10
2023-04-10T04:56:24.298Z,7.10
2023-04-10T04:58:51.035Z,7.10
2023-04-10T05:01:18.061Z,7.10
2023-04-10T05:03:45.086Z,7.10
2023-04-10T05:06:12.367Z,7.20
2023-04-10T05:08:40.484Z,7.20
2023-04-10T05:11:09.174Z,7.20
2023-04-10T05:13:36.040Z,7.30
2023-04-10T05:16:03.202Z,7.30
2023-04-10T05:18:30.619Z,7.40
2023-04-10T05:20:57.944Z,7.50
2023-04-10T05:23:24.704Z,7.60
2023-04-10T05:25:52.804Z,7.60
2023-04-10T05:28:21.057Z,7.70
2023-04-10T05:30:48.222Z,7.70
2023-04-10T05:33:15.456Z,7.80
2023-04-10T05:35:42.656Z,7.90
2023-04-10T05:38:09.816Z,7.90
2023-04-10T05:40:36.956Z,8.00
2023-04-10T05:43:04.077Z,8.00
2023-04-10T05:45:32.649Z,8.10
2023-04-10T05:47:59.571Z,8.20
2023-04-10T05:50:27.283Z,8.20
2023-04-10T05:52:55.459Z,8.30
2023-04-10T05:55:22.606Z,8.40
2023-04-10T05:57:51.349Z,8.50
2023-04-10T06:00:19.483Z,8.50
2023-04-10T06:02:47.818Z,8.60
2023-04-10T06:05:15.085Z,8.70
2023-04-10T06:07:41.860Z,8.80
2023-04-10T06:10:10.478Z,8.90
2023-04-10T06:12:37.300Z,9.00
2023-04-10T06:15:04.927Z,9.20
2023-04-10T06:17:31.972Z,9.20
2023-04-10T06:20:05.029Z,9.20
2023-04-10T06:22:32.674Z,9.30
2023-04-10T06:24:59.999Z,9.30
2023-04-10T06:27:27.238Z,9.40
2023-04-10T06:29:54.413Z,9.40
2023-04-10T06:32:21.327Z,9.50
2023-04-10T06:34:48.278Z,9.60
2023-04-10T06:37:16.469Z,9.70
2023-04-10T06:39:43.840Z,9.80
2023-04-10T06:42:10.741Z,9.90
2023-04-10T06:44:37.832Z,10.00
2023-04-10T06:47:06.703Z,10.10
2023-04-10T06:49:35.155Z,10.20
2023-04-10T06:52:01.965Z,10.20
2023-04-10T06:54:30.498Z,10.20
2023-04-10T06:56:58.920Z,10.30
2023-04-10T06:59:26.296Z,10.30
2023-04-10T07:01:53.172Z,10.40
2023-04-10T07:04:20.860Z,10.50
2023-04-10T07:06:47.773Z,10.50
2023-04-10T07:09:14.904Z,10.50
2023-04-10T07:11:43.230Z,10.50
2023-04-10T07:14:10.789Z,10.60
2023-04-10T07:16:38.892Z,10.60
2023-04-10T07:19:06.116Z,10.60
2023-04-10T07:21:33.342Z,10.70
2023-04-10T07:24:00.554Z,10.70
2023-04-10T07:26:27.713Z,10.70
2023-04-10T07:28:56.637Z,10.80
2023-04-10T07:31:23.907Z,10.90
2023-04-10T07:33:51.341Z,11.10
2023-04-10T07:36:18.297Z,11.20
2023-04-10T07:38:45.550Z,11.30
2023-04-10T07:41:12.585Z,11.40
2023-04-10T07:43:39.891Z,11.40
2023-04-10T07:46:08.409Z,11.30
2023-04-10T07:48:35.444Z,11.30
2023-04-10T07:51:02.713Z,11.50
2023-04-10T07:53:29.922Z,11.60
2023-04-10T07:55:56.847Z,11.60
2023-04-10T07:58:24.091Z,11.60
2023-04-10T08:00:51.374Z,11.70
2023-04-10T08:03:20.264Z,11.70
2023-04-10T08:05:47.443Z,11.80
2023-04-10T08:08:16.302Z,11.80
2023-04-10T08:10:43.406Z,11.90
2023-04-10T08:13:10.566Z,11.90
2023-04-10T08:15:37.472Z,11.90
2023-04-10T08:18:04.749Z,11.90
2023-04-10T08:20:36.843Z,11.90
2023-04-10T08:23:17.080Z,11.90
2023-04-10T08:25:46.561Z,11.90
2023-04-10T08:28:14.208Z,12.00
2023-04-10T08:30:41.122Z,12.10
2023-04-10T08:33:08.775Z,12.20
2023-04-10T08:35:37.061Z,12.10
2023-04-10T08:38:13.373Z,12.20
2023-04-10T08:40:41.449Z,12.40
2023-04-10T08:43:08.434Z,12.50
2023-04-10T08:45:35.416Z,12.70
2023-04-10T08:48:05.764Z,12.80
2023-04-10T08:50:36.198Z,12.90
2023-04-10T08:53:11.127Z,13.00
2023-04-10T08:55:38.876Z,13.00
2023-04-10T08:58:06.567Z,13.10
2023-04-10T09:00:34.681Z,13.20
2023-04-10T09:03:05.392Z,13.10
2023-04-10T09:05:32.384Z,13.20
2023-04-10T09:07:59.931Z,13.40
2023-04-10T09:10:28.342Z,13.50
2023-04-10T09:12:55.645Z,13.50
2023-04-10T09:15:22.747Z,13.50
2023-04-10T09:17:58.300Z,13.50
2023-04-10T09:20:27.084Z,13.60
2023-04-10T09:22:54.506Z,13.60
2023-04-10T09:25:32.437Z,13.80
2023-04-10T09:28:07.038Z,14.00
2023-04-10T09:30:35.970Z,14.00
2023-04-10T09:33:03.974Z,14.20
2023-04-10T09:35:39.043Z,14.40
2023-04-10T09:38:17.140Z,14.60
2023-04-10T09:40:46.576Z,14.60
2023-04-10T09:43:23.363Z,14.60
2023-04-10T09:45:52.255Z,14.70
2023-04-10T09:48:19.835Z,14.70
2023-04-10T09:50:46.976Z,14.80
2023-04-10T09:53:16.453Z,14.80
2023-04-10T09:55:45.727Z,14.90
2023-04-10T09:58:13.367Z,14.70
2023-04-10T10:00:42.258Z,14.60
2023-04-10T10:03:11.609Z,14.70
2023-04-10T10:05:40.741Z,14.80
2023-04-10T10:08:09.692Z,15.00
2023-04-10T10:10:39.899Z,15.20
2023-04-10T10:13:10.376Z,15.30
2023-04-10T10:15:44.800Z,15.30
2023-04-10T10:18:21.012Z,15.40
2023-04-10T10:20:50.345Z,15.50
2023-04-10T10:23:19.826Z,15.20
2023-04-10T10:25:48.714Z,15.10
2023-04-10T10:28:18.372Z,15.30
2023-04-10T10:30:46.961Z,15.50
2023-04-10T10:33:15.077Z,15.50
2023-04-10T10:35:42.229Z,15.50
2023-04-10T10:38:10.518Z,15.60
2023-04-10T10:40:46.182Z,15.60
2023-04-10T10:43:19.857Z,15.60
2023-04-10T10:45:53.712Z,15.70
2023-04-10T10:48:21.139Z,15.60
2023-04-10T10:50:56.984Z,15.70
2023-04-10T10:53:39.028Z,15.90
2023-04-10T10:56:34.941Z,16.00
2023-04-10T10:59:03.869Z,16.20
2023-04-10T11:01:30.858Z,16.10
2023-04-10T11:03:58.311Z,16.20
2023-04-10T11:06:51.077Z,16.40
2023-04-10T11:09:50.206Z,16.50
2023-04-10T11:12:19.589Z,16.60
2023-04-10T11:14:58.018Z,16.70
2023-04-10T11:17:48.735Z,16.80
2023-04-10T11:20:17.170Z,16.90
2023-04-10T11:23:10.023Z,17.10
2023-04-10T11:25:51.400Z,17.40
2023-04-10T11:28:38.266Z,17.50
2023-04-10T11:31:18.673Z,17.80
2023-04-10T11:33:46.195Z,18.10
2023-04-10T11:36:15.866Z,18.80
2023-04-10T11:38:55.464Z,19.10
2023-04-10T11:41:27.628Z,19.50
2023-04-10T11:43:55.182Z,19.30
2023-04-10T11:46:23.677Z,19.60
2023-04-10T11:48:53.734Z,19.90
2023-04-10T11:51:21.222Z,20.00
2023-04-10T11:53:48.712Z,20.00
2023-04-10T11:56:17.658Z,20.50
2023-04-10T11:58:44.975Z,20.90
2023-04-10T12:01:14.470Z,21.00
2023-04-10T12:03:43.896Z,21.30
2023-04-10T12:06:12.709Z,21.60
2023-04-10T12:08:41.648Z,21.60
2023-04-10T12:11:10.530Z,21.90
2023-04-10T12:13:38.411Z,22.50
2023-04-10T12:16:07.822Z,23.30
2023-04-10T12:18:35.271Z,23.00
2023-04-10T12:21:06.131Z,22.70
2023-04-10T12:23:37.994Z,22.50
2023-04-10T12:26:09.799Z,22.70
2023-04-10T12:28:38.345Z,23.90
2023-04-10T12:31:06.604Z,24.30
2023-04-10T12:33:33.682Z,24.00
2023-04-10T12:36:01.328Z,22.80
2023-04-10T12:38:41.313Z,22.40
2023-04-10T12:41:09.841Z,22.40
2023-04-10T12:43:38.296Z,22.70
2023-04-10T12:46:07.156Z,23.50
2023-04-10T12:48:34.312Z,23.40
2023-04-10T12:51:02.008Z,23.20
2023-04-10T12:53:29.105Z,23.50
2023-04-10T12:56:03.509Z,23.50
2023-04-10T12:58:31.682Z,22.80
2023-04-10T13:01:02.796Z,23.50
2023-04-10T13:03:30.366Z,24.40
2023-04-10T13:05:57.857Z,22.90
2023-04-10T13:08:25.034Z,22.30
2023-04-10T13:10:52.070Z,23.00
2023-04-10T13:13:20.665Z,23.20
2023-04-10T13:15:48.165Z,24.00
2023-04-10T13:18:15.174Z,24.20
2023-04-10T13:20:42.544Z,23.70
2023-04-10T13:23:09.719Z,24.50
2023-04-10T13:25:40.145Z,24.70
2023-04-10T13:28:11.202Z,23.70
2023-04-10T13:30:42.302Z,22.80
2023-04-10T13:33:09.956Z,22.80
2023-04-10T13:35:37.403Z,22.30
2023-04-10T13:38:04.361Z,21.60
2023-04-10T13:40:31.857Z,20.60
2023-04-10T13:42:58.771Z,20.10
2023-04-10T13:45:26.104Z,20.00
2023-04-10T13:47:54.404Z,20.10
2023-04-10T13:50:21.656Z,20.00
2023-04-10T13:52:48.594Z,20.00
2023-04-10T13:55:15.843Z,19.80
2023-04-10T13:57:43.570Z,19.30
2023-04-10T14:00:11.784Z,19.40
2023-04-10T14:02:38.903Z,19.20
2023-04-10T14:05:08.780Z,19.20
2023-04-10T14:07:35.901Z,19.10
2023-04-10T14:10:03.197Z,19.10
2023-04-10T14:12:30.271Z,18.80
2023-04-10T14:14:57.644Z,18.70
2023-04-10T14:17:24.736Z,18.70
2023-04-10T14:19:54.095Z,18.70
2023-04-10T14:22:22.411Z,18.80
2023-04-10T14:24:52.504Z,18.80
2023-04-10T14:27:21.783Z,18.60
2023-04-10T14:29:54.797Z,18.70
2023-04-10T14:32:22.306Z,18.80
2023-04-10T14:34:49.680Z,19.10
2023-04-10T14:37:19.017Z,19.30
2023-04-10T14:39:47.797Z,19.30
2023-04-10T14:42:14.768Z,19.20
2023-04-10T14:44:41.993Z,19.40
2023-04-10T14:47:08.875Z,19.60
2023-04-10T14:49:36.165Z,19.80
2023-04-10T14:52:03.139Z,19.70
2023-04-10T14:54:30.632Z,20.00
2023-04-10T14:56:59.175Z,20.20
2023-04-10T14:59:26.503Z,19.80
2023-04-10T15:01:54.074Z,19.40
2023-04-10T15:04:21.861Z,19.00
2023-04-10T15:06:48.954Z,19.00
2023-04-10T15:09:16.214Z,19.00
2023-04-10T15:11:43.246Z,18.80
2023-04-10T15:14:12.464Z,18.80
2023-04-10T15:16:39.440Z,18.60
2023-04-10T15:19:06.709Z,18.50
2023-04-10T15:21:33.736Z,18.50
2023-04-10T15:24:01.509Z,18.50
2023-04-10T15:26:28.570Z,18.40
2023-04-10T15:28:55.904Z,18.50
2023-04-10T15:31:24.447Z,18.30
2023-04-10T15:33:52.645Z,18.30
2023-04-10T15:36:19.715Z,18.20
2023-04-10T15:38:49.431Z,18.10
2023-04-10T15:41:17.612Z,18.00
2023-04-10T15:43:44.861Z,18.00
2023-04-10T15:46:12.334Z,17.80
2023-04-10T15:48:40.812Z,17.70
2023-04-10T15:51:08.411Z,17.70
2023-04-10T15:53:35.755Z,17.80
2023-04-10T15:56:04.713Z,17.90
2023-04-10T15:58:31.879Z,18.10
2023-04-10T16:00:59.359Z,18.10
2023-04-10T16:03:30.352Z,18.10
2023-04-10T16:05:59.348Z,18.20
2023-04-10T16:08:27.421Z,18.10
2023-04-10T16:10:54.488Z,18.10
2023-04-10T16:13:21.406Z,18.20
2023-04-10T16:15:50.089Z,18.20
2023-04-10T16:18:17.212Z,18.10
2023-04-10T16:20:44.478Z,18.10
2023-04-10T16:23:12.854Z,18.30
2023-04-10T16:25:40.404Z,18.30
2023-04-10T16:28:08.016Z,18.20
2023-04-10T16:30:36.434Z,18.20
2023-04-10T16:33:04.187Z,18.20
2023-04-10T16:35:31.954Z,18.10
2023-04-10T16:37:59.101Z,17.90
2023-04-10T16:40:32.687Z,17.90
2023-04-10T16:43:01.735Z,17.70
2023-04-10T16:45:29.168Z,17.40
2023-04-10T16:47:56.262Z,17.40
2023-04-10T16:50:23.852Z,17.30
2023-04-10T16:52:50.768Z,17.20
2023-04-10T16:55:18.035Z,17.10
2023-04-10T16:57:46.556Z,17.00
2023-04-10T17:00:14.335Z,16.90
2023-04-10T17:02:43.076Z,16.90
2023-04-10T17:05:11.700Z,16.80
2023-04-10T17:07:38.620Z,16.70
2023-04-10T17:10:06.483Z,16.60
2023-04-10T17:12:33.390Z,16.40
2023-04-10T17:15:01.995Z,16.40
2023-04-10T17:17:29.119Z,16.30
2023-04-10T17:19:56.838Z,16.10
2023-04-10T17:22:23.818Z,16.10
2023-04-10T17:24:50.819Z,16.00
2023-04-10T17:27:17.803Z,16.00
2023-04-10T17:29:44.926Z,15.90
2023-04-10T17:32:13.436Z,16.00
2023-04-10T17:34:40.535Z,15.90
2023-04-10T17:37:07.444Z,15.90
2023-04-10T17:39:34.285Z,16.00
2023-04-10T17:42:01.445Z,16.00
2023-04-10T17:44:28.359Z,16.00
2023-04-10T17:46:55.218Z,15.90
2023-04-10T17:49:23.929Z,15.80
2023-04-10T17:51:50.925Z,15.70
2023-04-10T17:54:17.910Z,15.60
2023-04-10T17:56:46.003Z,15.50
2023-04-10T17:59:12.911Z,15.40
2023-04-10T18:01:39.972Z,15.30
2023-04-10T18:04:07.646Z,15.30
2023-04-10T18:06:35.978Z,15.30
2023-04-10T18:09:03.453Z,15.30
2023-04-10T18:11:30.380Z,15.20
2023-04-10T18:13:57.763Z,15.20
2023-04-10T18:16:24.683Z,15.20
2023-04-10T18:18:52.155Z,15.10
2023-04-10T18:21:20.937Z,15.10
2023-04-10T18:23:49.534Z,15.00
2023-04-10T18:26:16.630Z,15.00
2023-04-10T18:28:45.400Z,15.00
2023-04-10T18:31:15.887Z,15.00
2023-04-10T18:33:43.525Z,14.90
2023-04-10T18:36:13.937Z,15.00
2023-04-10T18:38:43.069Z,14.90
2023-04-10T18:41:11.345Z,14.90
2023-04-10T18:43:39.387Z,14.90
2023-04-10T18:46:07.099Z,14.90
2023-04-10T18:48:36.143Z,14.90
2023-04-10T18:51:03.319Z,14.90
2023-04-10T18:53:30.677Z,14.80
2023-04-10T18:55:57.554Z,14.80
2023-04-10T18:58:26.059Z,14.80
2023-04-10T19:00:53.850Z,14.90
2023-04-10T19:03:21.282Z,14.80
2023-04-10T19:05:48.441Z,14.70
2023-04-10T19:08:17.007Z,14.80
2023-04-10T19:10:44.030Z,14.80
2023-04-10T19:13:12.501Z,14.70
2023-04-10T19:15:42.159Z,14.70
2023-04-10T19:18:09.916Z,14.80
2023-04-10T19:20:50.871Z,14.80
2023-04-10T19:23:20.812Z,14.80
2023-04-10T19:25:51.669Z,14.80
2023-04-10T19:28:18.640Z,14.80
2023-04-10T19:30:47.654Z,14.80
2023-04-10T19:33:15.676Z,14.70
2023-04-10T19:35:42.581Z,14.70
2023-04-10T19:38:09.985Z,14.60
2023-04-10T19:40:37.317Z,14.60
2023-04-10T19:43:05.039Z,14.50
2023-04-10T19:45:33.035Z,14.40
2023-04-10T19:48:01.645Z,14.30
2023-04-10T19:50:30.016Z,14.30
2023-04-10T19:52:57.448Z,14.20
2023-04-10T19:55:24.515Z,14.10
2023-04-10T19:57:51.628Z,14.10
2023-04-10T20:00:19.334Z,14.10
2023-04-10T20:02:46.583Z,14.00
2023-04-10T20:05:15.446Z,13.90
2023-04-10T20:07:42.888Z,13.90
2023-04-10T20:10:11.507Z,13.80
2023-04-10T20:12:38.883Z,13.80
2023-04-10T20:15:07.337Z,13.80
2023-04-10T20:17:34.767Z,13.70
2023-04-10T20:20:01.967Z,13.70
2023-04-10T20:22:30.945Z,13.60
2023-04-10T20:24:57.981Z,13.60
2023-04-10T20:27:24.887Z,13.60
2023-04-10T20:29:51.838Z,13.60
2023-04-10T20:32:18.716Z,13.60
2023-04-10T20:34:46.001Z,13.60
2023-04-10T20:37:17.232Z,13.60
2023-04-10T20:39:45.819Z,13.60
2023-04-10T20:42:12.749Z,13.60
2023-04-10T20:44:40.102Z,13.60
2023-04-10T20:47:07.117Z,13.60
2023-04-10T20:49:34.342Z,13.60
2023-04-10T20:52:01.258Z,13.60
2023-04-10T20:54:28.521Z,13.60
2023-04-10T20:57:01.528Z,13.60
2023-04-10T20:59:29.388Z,13.60
2023-04-10T21:01:56.324Z,13.50
2023-04-10T21:04:23.669Z,13.50
2023-04-10T21:06:50.636Z,13.50
2023-04-10T21:09:17.985Z,13.50
2023-04-10T21:11:44.970Z,13.50
2023-04-10T21:14:13.612Z,13.50
2023-04-10T21:16:42.490Z,13.60
2023-04-10T21:19:10.191Z,13.60
2023-04-10T21:21:37.148Z,13.60
2023-04-10T21:24:04.608Z,13.60
2023-04-10T21:26:31.909Z,13.70
2023-04-10T21:28:59.177Z,13.70
2023-04-10T21:31:27.535Z,13.80
2023-04-10T21:33:54.524Z,13.90
2023-04-10T21:36:21.535Z,14.00
2023-04-10T21:38:48.813Z,14.00
2023-04-10T21:41:15.791Z,14.10
2023-04-10T21:43:43.431Z,14.20
2023-04-10T21:46:10.960Z,14.20
2023-04-10T21:48:39.675Z,14.20
2023-04-10T21:51:07.040Z,14.20
2023-04-10T21:53:34.442Z,14.20
2023-04-10T21:56:01.460Z,14.10
2023-04-10T21:58:28.785Z,14.10
2023-04-10T22:00:56.021Z,14.10
2023-04-10T22:03:24.081Z,14.20
2023-04-10T22:05:52.751Z,14.20
2023-04-10T22:08:20.524Z,14.20
2023-04-10T22:10:48.107Z,14.10
2023-04-10T22:13:29.672Z,14.10
2023-04-10T22:15:57.569Z,14.10
2023-04-10T22:18:24.901Z,14.10
2023-04-10T22:20:53.544Z,14.00
2023-04-10T22:23:20.916Z,14.00
2023-04-10T22:25:47.884Z,14.00
2023-04-10T22:28:15.161Z,14.10
2023-04-10T22:30:42.110Z,14.20
2023-04-10T22:33:10.101Z,14.40
2023-04-10T22:35:37.094Z,14.40
2023-04-10T22:38:05.827Z,14.40
2023-04-10T22:40:32.732Z,14.40
2023-04-10T22:43:00.009Z,14.40
2023-04-10T22:45:26.952Z,14.40
2023-04-10T22:47:54.355Z,14.50
2023-04-10T22:50:21.473Z,14.50
2023-04-10T22:52:49.186Z,14.50
2023-04-10T22:55:17.596Z,14.40
2023-04-10T22:57:47.905Z,14.40
2023-04-10T23:00:15.443Z,14.30
2023-04-10T23:02:42.776Z,14.30
2023-04-10T23:05:09.752Z,14.20
2023-04-10T23:07:37.221Z,14.10
2023-04-10T23:10:04.710Z,14.00
2023-04-10T23:12:33.265Z,13.90
2023-04-10T23:15:00.124Z,13.80
2023-04-10T23:17:27.512Z,13.80
2023-04-10T23:19:54.833Z,13.70
2023-04-10T23:22:22.227Z,13.60
2023-04-10T23:24:53.188Z,13.60
2023-04-10T23:27:20.494Z,13.50
2023-04-10T23:29:48.864Z,13.50
2023-04-10T23:32:16.834Z,13.40
2023-04-10T23:34:43.877Z,13.30
2023-04-10T23:37:11.205Z,13.30
2023-04-10T23:39:38.278Z,13.30
2023-04-10T23:42:05.657Z,13.20
2023-04-10T23:44:32.636Z,13.10
2023-04-10T23:47:01.299Z,12.90
2023-04-10T23:49:28.809Z,12.80
2023-04-10T23:51:56.093Z,12.80
2023-04-10T23:54:23.120Z,12.60
2023-04-10T23:56:50.444Z,12.60
2023-04-10T23:59:19.084Z,12.50
